Time;durP1;ratioP1;P1;durP2;ratioP2;P2;SDS_P1;SDS_P2;PMS_P1;PMS_P2;Temp;Humidity;BMP_temperature;BMP_pressure;BME280_temperature;BME280_humidity;BME280_pressure;Samples;Min_cycle;Max_cycle;Signal;HPM_P1;HPM_P2
2019/08/25 00:00:28;;;;;;;17.4;15.65;;;;;;;16.91;100;95479.38;;;;
2019/08/25 00:01:40;;;;;;;17.4;15.65;;;;;;;16.91;100;95479.38;;;;
2019/08/25 00:02:42;;;;;;;17.4;15.65;;;;;;;16.91;100;95479.38;;;;
2019/08/25 00:03:43;;;;;;;17.4;15.65;;;;;;;16.91;100;95479.38;;;;
2019/08/25 00:04:45;;;;;;;17.4;15.65;;;;;;;16.91;100;95479.38;;;;
2019/08/25 00:05:47;;;;;;;17.4;15.65;;;;;;;16.91;100;95479.38;;;;
2019/08/25 00:06:49;;;;;;;16.95;15.35;;;;;;;16.81;100;95468.43;;;;
2019/08/25 00:07:50;;;;;;;16.95;15.35;;;;;;;16.81;100;95468.43;;;;
2019/08/25 00:08:52;;;;;;;16.95;15.35;;;;;;;16.81;100;95468.43;;;;
2019/08/25 00:09:53;;;;;;;16.95;15.35;;;;;;;16.81;100;95468.43;;;;
2019/08/25 00:10:55;;;;;;;16.95;15.35;;;;;;;16.81;100;95468.43;;;;
2019/08/25 00:11:56;;;;;;;16.95;15.35;;;;;;;16.81;100;95468.43;;;;
2019/08/25 00:12:57;;;;;;;16.95;15.35;;;;;;;16.81;100;95468.43;;;;
2019/08/25 00:13:59;;;;;;;16.95;15.35;;;;;;;16.81;100;95468.43;;;;
2019/08/25 00:15:00;;;;;;;16.95;15.35;;;;;;;16.81;100;95468.43;;;;
2019/08/25 00:16:02;;;;;;;16.95;15.35;;;;;;;16.81;100;95468.43;;;;
2019/08/25 00:17:06;;;;;;;17.65;15.95;;;;;;;16.75;100;95481.65;;;;
2019/08/25 00:18:07;;;;;;;17.65;15.95;;;;;;;16.75;100;95481.65;;;;
2019/08/25 00:19:08;;;;;;;17.65;15.95;;;;;;;16.75;100;95481.65;;;;
2019/08/25 00:20:10;;;;;;;17.65;15.95;;;;;;;16.75;100;95481.65;;;;
2019/08/25 00:21:14;;;;;;;17.65;15.95;;;;;;;16.75;100;95481.65;;;;
2019/08/25 00:22:16;;;;;;;17.65;15.95;;;;;;;16.75;100;95481.65;;;;
2019/08/25 00:23:17;;;;;;;17.65;15.95;;;;;;;16.75;100;95481.65;;;;
2019/08/25 00:24:19;;;;;;;17.65;15.95;;;;;;;16.75;100;95481.65;;;;
2019/08/25 00:25:20;;;;;;;17.65;15.95;;;;;;;16.75;100;95481.65;;;;
2019/08/25 00:26:22;;;;;;;17.65;15.95;;;;;;;16.75;100;95481.65;;;;
2019/08/25 00:27:23;;;;;;;17.15;15.4;;;;;;;16.77;100;95476.87;;;;
2019/08/25 00:28:25;;;;;;;17.15;15.4;;;;;;;16.77;100;95476.87;;;;
2019/08/25 00:29:26;;;;;;;17.15;15.4;;;;;;;16.77;100;95476.87;;;;
2019/08/25 00:30:27;;;;;;;17.15;15.4;;;;;;;16.77;100;95476.87;;;;
2019/08/25 00:31:30;;;;;;;17.15;15.4;;;;;;;16.77;100;95476.87;;;;
2019/08/25 00:32:31;;;;;;;17.15;15.4;;;;;;;16.77;100;95476.87;;;;
2019/08/25 00:33:33;;;;;;;17.15;15.4;;;;;;;16.77;100;95476.87;;;;
2019/08/25 00:34:34;;;;;;;17.15;15.4;;;;;;;16.77;100;95476.87;;;;
2019/08/25 00:35:36;;;;;;;17.15;15.4;;;;;;;16.77;100;95476.87;;;;
2019/08/25 00:36:38;;;;;;;17.15;15.4;;;;;;;16.77;100;95476.87;;;;
2019/08/25 00:37:39;;;;;;;17.15;15.4;;;;;;;16.77;100;95476.87;;;;
2019/08/25 00:38:40;;;;;;;17.5;15.7;;;;;;;16.71;100;95471.98;;;;
2019/08/25 00:39:42;;;;;;;17.5;15.7;;;;;;;16.71;100;95471.98;;;;
2019/08/25 00:40:43;;;;;;;17.5;15.7;;;;;;;16.71;100;95471.98;;;;
2019/08/25 00:41:46;;;;;;;17.5;15.7;;;;;;;16.71;100;95471.98;;;;
2019/08/25 00:42:47;;;;;;;17.5;15.7;;;;;;;16.71;100;95471.98;;;;
2019/08/25 00:43:48;;;;;;;17.5;15.7;;;;;;;16.71;100;95471.98;;;;
2019/08/25 00:44:49;;;;;;;17.5;15.7;;;;;;;16.71;100;95471.98;;;;
2019/08/25 00:45:51;;;;;;;17.5;15.7;;;;;;;16.71;100;95471.98;;;;
2019/08/25 00:46:52;;;;;;;17.5;15.7;;;;;;;16.71;100;95471.98;;;;
2019/08/25 00:47:54;;;;;;;17.5;15.7;;;;;;;16.71;100;95471.98;;;;
2019/08/25 00:48:55;;;;;;;17.1;15.4;;;;;;;16.7;100;95466.24;;;;
2019/08/25 00:49:56;;;;;;;17.1;15.4;;;;;;;16.7;100;95466.24;;;;
2019/08/25 00:50:57;;;;;;;17.1;15.4;;;;;;;16.7;100;95466.24;;;;
2019/08/25 00:51:59;;;;;;;17.1;15.4;;;;;;;16.7;100;95466.24;;;;
2019/08/25 00:53:00;;;;;;;17.1;15.4;;;;;;;16.7;100;95466.24;;;;
2019/08/25 00:54:01;;;;;;;17.1;15.4;;;;;;;16.7;100;95466.24;;;;
2019/08/25 00:55:03;;;;;;;17.1;15.4;;;;;;;16.7;100;95466.24;;;;
2019/08/25 00:56:05;;;;;;;17.1;15.4;;;;;;;16.7;100;95466.24;;;;
2019/08/25 00:57:06;;;;;;;17.1;15.4;;;;;;;16.7;100;95466.24;;;;
2019/08/25 00:58:07;;;;;;;17.1;15.4;;;;;;;16.7;100;95466.24;;;;
2019/08/25 00:59:08;;;;;;;16.65;15.15;;;;;;;16.6;100;95457.47;;;;
2019/08/25 01:00:10;;;;;;;16.65;15.15;;;;;;;16.6;100;95457.47;;;;
2019/08/25 01:01:13;;;;;;;16.65;15.15;;;;;;;16.6;100;95457.47;;;;
2019/08/25 01:02:15;;;;;;;16.65;15.15;;;;;;;16.6;100;95457.47;;;;
2019/08/25 01:03:16;;;;;;;16.65;15.15;;;;;;;16.6;100;95457.47;;;;
2019/08/25 01:04:18;;;;;;;16.65;15.15;;;;;;;16.6;100;95457.47;;;;
2019/08/25 01:05:19;;;;;;;16.65;15.15;;;;;;;16.6;100;95457.47;;;;
2019/08/25 01:06:26;;;;;;;16.65;15.15;;;;;;;16.6;100;95457.47;;;;
2019/08/25 01:07:27;;;;;;;16.65;15.15;;;;;;;16.6;100;95457.47;;;;
2019/08/25 01:08:29;;;;;;;16.65;15.15;;;;;;;16.6;100;95457.47;;;;
2019/08/25 01:09:30;;;;;;;16.65;15.15;;;;;;;16.6;100;95457.47;;;;
2019/08/25 01:10:32;;;;;;;16.6;14.9;;;;;;;16.62;100;95473.02;;;;
2019/08/25 01:11:38;;;;;;;16.6;14.9;;;;;;;16.62;100;95473.02;;;;
2019/08/25 01:12:40;;;;;;;16.6;14.9;;;;;;;16.62;100;95473.02;;;;
2019/08/25 01:13:41;;;;;;;16.6;14.9;;;;;;;16.62;100;95473.02;;;;
2019/08/25 01:14:42;;;;;;;16.6;14.9;;;;;;;16.62;100;95473.02;;;;
2019/08/25 01:15:44;;;;;;;16.6;14.9;;;;;;;16.62;100;95473.02;;;;
2019/08/25 01:16:52;;;;;;;16.6;14.9;;;;;;;16.62;100;95473.02;;;;
2019/08/25 01:18:14;;;;;;;16.6;14.9;;;;;;;16.62;100;95473.02;;;;
2019/08/25 01:19:18;;;;;;;16.6;14.9;;;;;;;16.62;100;95473.02;;;;
2019/08/25 01:20:20;;;;;;;15.4;13.95;;;;;;;16.59;100;95464.98;;;;
2019/08/25 01:21:22;;;;;;;15.4;13.95;;;;;;;16.59;100;95464.98;;;;
2019/08/25 01:22:23;;;;;;;15.4;13.95;;;;;;;16.59;100;95464.98;;;;
2019/08/25 01:23:24;;;;;;;15.4;13.95;;;;;;;16.59;100;95464.98;;;;
2019/08/25 01:24:26;;;;;;;15.4;13.95;;;;;;;16.59;100;95464.98;;;;
2019/08/25 01:25:28;;;;;;;15.4;13.95;;;;;;;16.59;100;95464.98;;;;
2019/08/25 01:26:29;;;;;;;15.4;13.95;;;;;;;16.59;100;95464.98;;;;
2019/08/25 01:27:31;;;;;;;15.4;13.95;;;;;;;16.59;100;95464.98;;;;
2019/08/25 01:28:32;;;;;;;15.4;13.95;;;;;;;16.59;100;95464.98;;;;
2019/08/25 01:29:34;;;;;;;15.4;13.95;;;;;;;16.59;100;95464.98;;;;
2019/08/25 01:30:35;;;;;;;15.4;13.95;;;;;;;16.59;100;95464.98;;;;
2019/08/25 01:31:38;;;;;;;15.95;14.4;;;;;;;16.64;100;95462.67;;;;
2019/08/25 01:32:41;;;;;;;15.95;14.4;;;;;;;16.64;100;95462.67;;;;
2019/08/25 01:33:42;;;;;;;15.95;14.4;;;;;;;16.64;100;95462.67;;;;
2019/08/25 01:34:44;;;;;;;15.95;14.4;;;;;;;16.64;100;95462.67;;;;
2019/08/25 01:35:45;;;;;;;15.95;14.4;;;;;;;16.64;100;95462.67;;;;
2019/08/25 01:36:47;;;;;;;15.95;14.4;;;;;;;16.64;100;95462.67;;;;
2019/08/25 01:37:48;;;;;;;15.95;14.4;;;;;;;16.64;100;95462.67;;;;
2019/08/25 01:38:50;;;;;;;15.95;14.4;;;;;;;16.64;100;95462.67;;;;
2019/08/25 01:39:51;;;;;;;15.95;14.4;;;;;;;16.64;100;95462.67;;;;
2019/08/25 01:40:52;;;;;;;15.95;14.4;;;;;;;16.64;100;95462.67;;;;
2019/08/25 01:41:54;;;;;;;16.15;14.5;;;;;;;16.57;100;95455.83;;;;
2019/08/25 01:42:55;;;;;;;16.15;14.5;;;;;;;16.57;100;95455.83;;;;
2019/08/25 01:43:56;;;;;;;16.15;14.5;;;;;;;16.57;100;95455.83;;;;
2019/08/25 01:44:58;;;;;;;16.15;14.5;;;;;;;16.57;100;95455.83;;;;
2019/08/25 01:45:59;;;;;;;16.15;14.5;;;;;;;16.57;100;95455.83;;;;
2019/08/25 01:47:00;;;;;;;16.15;14.5;;;;;;;16.57;100;95455.83;;;;
2019/08/25 01:48:02;;;;;;;16.15;14.5;;;;;;;16.57;100;95455.83;;;;
2019/08/25 01:49:03;;;;;;;16.15;14.5;;;;;;;16.57;100;95455.83;;;;
2019/08/25 01:50:05;;;;;;;16.15;14.5;;;;;;;16.57;100;95455.83;;;;
2019/08/25 01:51:07;;;;;;;16.15;14.5;;;;;;;16.57;100;95455.83;;;;
2019/08/25 01:52:09;;;;;;;16.05;14.45;;;;;;;16.51;100;95448.33;;;;
2019/08/25 01:53:10;;;;;;;16.05;14.45;;;;;;;16.51;100;95448.33;;;;
2019/08/25 01:54:12;;;;;;;16.05;14.45;;;;;;;16.51;100;95448.33;;;;
2019/08/25 01:55:13;;;;;;;16.05;14.45;;;;;;;16.51;100;95448.33;;;;
2019/08/25 01:56:15;;;;;;;16.05;14.45;;;;;;;16.51;100;95448.33;;;;
2019/08/25 01:57:16;;;;;;;16.05;14.45;;;;;;;16.51;100;95448.33;;;;
2019/08/25 01:58:18;;;;;;;16.05;14.45;;;;;;;16.51;100;95448.33;;;;
2019/08/25 01:59:19;;;;;;;16.05;14.45;;;;;;;16.51;100;95448.33;;;;
2019/08/25 02:00:20;;;;;;;16.05;14.45;;;;;;;16.51;100;95448.33;;;;
2019/08/25 02:01:26;;;;;;;16.05;14.45;;;;;;;16.51;100;95448.33;;;;
2019/08/25 02:02:27;;;;;;;16.05;14.45;;;;;;;16.51;100;95448.33;;;;
2019/08/25 02:03:29;;;;;;;15.3;13.9;;;;;;;16.43;100;95454.26;;;;
2019/08/25 02:04:31;;;;;;;15.3;13.9;;;;;;;16.43;100;95454.26;;;;
2019/08/25 02:05:32;;;;;;;15.3;13.9;;;;;;;16.43;100;95454.26;;;;
2019/08/25 02:06:35;;;;;;;15.3;13.9;;;;;;;16.43;100;95454.26;;;;
2019/08/25 02:07:37;;;;;;;15.3;13.9;;;;;;;16.43;100;95454.26;;;;
2019/08/25 02:08:38;;;;;;;15.3;13.9;;;;;;;16.43;100;95454.26;;;;
2019/08/25 02:09:40;;;;;;;15.3;13.9;;;;;;;16.43;100;95454.26;;;;
2019/08/25 02:10:41;;;;;;;15.3;13.9;;;;;;;16.43;100;95454.26;;;;
2019/08/25 02:11:47;;;;;;;15.3;13.9;;;;;;;16.43;100;95454.26;;;;
2019/08/25 02:12:49;;;;;;;15.3;13.9;;;;;;;16.43;100;95454.26;;;;
2019/08/25 02:13:50;;;;;;;16.45;14.25;;;;;;;16.46;100;95455.52;;;;
2019/08/25 02:14:51;;;;;;;16.45;14.25;;;;;;;16.46;100;95455.52;;;;
2019/08/25 02:15:53;;;;;;;16.45;14.25;;;;;;;16.46;100;95455.52;;;;
2019/08/25 02:16:54;;;;;;;16.45;14.25;;;;;;;16.46;100;95455.52;;;;
2019/08/25 02:17:56;;;;;;;16.45;14.25;;;;;;;16.46;100;95455.52;;;;
2019/08/25 02:18:57;;;;;;;16.45;14.25;;;;;;;16.46;100;95455.52;;;;
2019/08/25 02:19:58;;;;;;;16.45;14.25;;;;;;;16.46;100;95455.52;;;;
2019/08/25 02:20:59;;;;;;;16.45;14.25;;;;;;;16.46;100;95455.52;;;;
2019/08/25 02:22:02;;;;;;;16.45;14.25;;;;;;;16.46;100;95455.52;;;;
2019/08/25 02:23:05;;;;;;;16.45;14.25;;;;;;;16.46;100;95455.52;;;;
2019/08/25 02:25:10;;;;;;;15.1;13.6;;;;;;;16.44;100;95457.69;;;;
2019/08/25 02:26:37;;;;;;;15.1;13.6;;;;;;;16.44;100;95457.69;;;;
2019/08/25 02:27:41;;;;;;;15.1;13.6;;;;;;;16.44;100;95457.69;;;;
2019/08/25 02:28:49;;;;;;;15.1;13.6;;;;;;;16.44;100;95457.69;;;;
2019/08/25 02:30:07;;;;;;;15.1;13.6;;;;;;;16.44;100;95457.69;;;;
2019/08/25 02:31:18;;;;;;;15.1;13.6;;;;;;;16.44;100;95457.69;;;;
2019/08/25 02:32:36;;;;;;;15.1;13.6;;;;;;;16.44;100;95457.69;;;;
2019/08/25 02:33:37;;;;;;;15.1;13.6;;;;;;;16.44;100;95457.69;;;;
2019/08/25 02:34:39;;;;;;;15.75;14.15;;;;;;;16.48;100;95454.33;;;;
2019/08/25 02:35:40;;;;;;;15.75;14.15;;;;;;;16.48;100;95454.33;;;;
2019/08/25 02:36:41;;;;;;;15.75;14.15;;;;;;;16.48;100;95454.33;;;;
2019/08/25 02:37:42;;;;;;;15.75;14.15;;;;;;;16.48;100;95454.33;;;;
2019/08/25 02:38:43;;;;;;;15.75;14.15;;;;;;;16.48;100;95454.33;;;;
2019/08/25 02:39:45;;;;;;;15.75;14.15;;;;;;;16.48;100;95454.33;;;;
2019/08/25 02:40:46;;;;;;;15.75;14.15;;;;;;;16.48;100;95454.33;;;;
2019/08/25 02:41:47;;;;;;;15.75;14.15;;;;;;;16.48;100;95454.33;;;;
2019/08/25 02:42:49;;;;;;;15.75;14.15;;;;;;;16.48;100;95454.33;;;;
2019/08/25 02:43:50;;;;;;;15.75;14.15;;;;;;;16.48;100;95454.33;;;;
2019/08/25 02:44:51;;;;;;;15.75;14.15;;;;;;;16.48;100;95454.33;;;;
2019/08/25 02:45:52;;;;;;;15.1;13.5;;;;;;;16.45;100;95456.17;;;;
2019/08/25 02:46:57;;;;;;;15.1;13.5;;;;;;;16.45;100;95456.17;;;;
2019/08/25 02:47:58;;;;;;;15.1;13.5;;;;;;;16.45;100;95456.17;;;;
2019/08/25 02:48:59;;;;;;;15.1;13.5;;;;;;;16.45;100;95456.17;;;;
2019/08/25 02:50:01;;;;;;;15.1;13.5;;;;;;;16.45;100;95456.17;;;;
2019/08/25 02:51:03;;;;;;;15.1;13.5;;;;;;;16.45;100;95456.17;;;;
2019/08/25 02:52:04;;;;;;;15.1;13.5;;;;;;;16.45;100;95456.17;;;;
2019/08/25 02:53:06;;;;;;;15.1;13.5;;;;;;;16.45;100;95456.17;;;;
2019/08/25 02:54:07;;;;;;;15.1;13.5;;;;;;;16.45;100;95456.17;;;;
2019/08/25 02:55:08;;;;;;;15.1;13.5;;;;;;;16.45;100;95456.17;;;;
2019/08/25 02:56:11;;;;;;;15.5;13.95;;;;;;;16.43;100;95456.98;;;;
2019/08/25 02:57:12;;;;;;;15.5;13.95;;;;;;;16.43;100;95456.98;;;;
2019/08/25 02:58:13;;;;;;;15.5;13.95;;;;;;;16.43;100;95456.98;;;;
2019/08/25 02:59:14;;;;;;;15.5;13.95;;;;;;;16.43;100;95456.98;;;;
2019/08/25 03:00:16;;;;;;;15.5;13.95;;;;;;;16.43;100;95456.98;;;;
2019/08/25 03:01:18;;;;;;;15.5;13.95;;;;;;;16.43;100;95456.98;;;;
2019/08/25 03:02:19;;;;;;;15.5;13.95;;;;;;;16.43;100;95456.98;;;;
2019/08/25 03:03:21;;;;;;;15.5;13.95;;;;;;;16.43;100;95456.98;;;;
2019/08/25 03:04:22;;;;;;;15.5;13.95;;;;;;;16.43;100;95456.98;;;;
2019/08/25 03:05:23;;;;;;;15.5;13.95;;;;;;;16.43;100;95456.98;;;;
2019/08/25 03:06:25;;;;;;;15.4;13.9;;;;;;;16.31;100;95463.09;;;;
2019/08/25 03:07:26;;;;;;;15.4;13.9;;;;;;;16.31;100;95463.09;;;;
2019/08/25 03:08:27;;;;;;;15.4;13.9;;;;;;;16.31;100;95463.09;;;;
2019/08/25 03:09:28;;;;;;;15.4;13.9;;;;;;;16.31;100;95463.09;;;;
2019/08/25 03:10:30;;;;;;;15.4;13.9;;;;;;;16.31;100;95463.09;;;;
2019/08/25 03:11:32;;;;;;;15.4;13.9;;;;;;;16.31;100;95463.09;;;;
2019/08/25 03:12:33;;;;;;;15.4;13.9;;;;;;;16.31;100;95463.09;;;;
2019/08/25 03:13:35;;;;;;;15.4;13.9;;;;;;;16.31;100;95463.09;;;;
2019/08/25 03:14:36;;;;;;;15.4;13.9;;;;;;;16.31;100;95463.09;;;;
2019/08/25 03:15:37;;;;;;;15.4;13.9;;;;;;;16.31;100;95463.09;;;;
2019/08/25 03:16:39;;;;;;;15.4;13.9;;;;;;;16.31;100;95463.09;;;;
2019/08/25 03:17:41;;;;;;;14.7;13.25;;;;;;;16.37;100;95469.39;;;;
2019/08/25 03:18:42;;;;;;;14.7;13.25;;;;;;;16.37;100;95469.39;;;;
2019/08/25 03:19:43;;;;;;;14.7;13.25;;;;;;;16.37;100;95469.39;;;;
2019/08/25 03:20:44;;;;;;;14.7;13.25;;;;;;;16.37;100;95469.39;;;;
2019/08/25 03:21:46;;;;;;;14.7;13.25;;;;;;;16.37;100;95469.39;;;;
2019/08/25 03:22:47;;;;;;;14.7;13.25;;;;;;;16.37;100;95469.39;;;;
2019/08/25 03:23:48;;;;;;;14.7;13.25;;;;;;;16.37;100;95469.39;;;;
2019/08/25 03:24:49;;;;;;;14.7;13.25;;;;;;;16.37;100;95469.39;;;;
2019/08/25 03:25:50;;;;;;;14.7;13.25;;;;;;;16.37;100;95469.39;;;;
2019/08/25 03:26:52;;;;;;;14.7;13.25;;;;;;;16.37;100;95469.39;;;;
2019/08/25 03:27:53;;;;;;;15.25;13.65;;;;;;;16.46;100;95471.88;;;;
2019/08/25 03:28:54;;;;;;;15.25;13.65;;;;;;;16.46;100;95471.88;;;;
2019/08/25 03:29:55;;;;;;;15.25;13.65;;;;;;;16.46;100;95471.88;;;;
2019/08/25 03:30:56;;;;;;;15.25;13.65;;;;;;;16.46;100;95471.88;;;;
2019/08/25 03:33:02;;;;;;;15.25;13.65;;;;;;;16.46;100;95471.88;;;;
2019/08/25 03:34:04;;;;;;;15.25;13.65;;;;;;;16.46;100;95471.88;;;;
2019/08/25 03:35:05;;;;;;;15.25;13.65;;;;;;;16.46;100;95471.88;;;;
2019/08/25 03:36:07;;;;;;;15.25;13.65;;;;;;;16.46;100;95471.88;;;;
2019/08/25 03:37:11;;;;;;;15.25;13.65;;;;;;;16.46;100;95471.88;;;;
2019/08/25 03:38:12;;;;;;;14.3;13;;;;;;;16.7;100;95472.09;;;;
2019/08/25 03:39:13;;;;;;;14.3;13;;;;;;;16.7;100;95472.09;;;;
2019/08/25 03:40:14;;;;;;;14.3;13;;;;;;;16.7;100;95472.09;;;;
2019/08/25 03:41:16;;;;;;;14.3;13;;;;;;;16.7;100;95472.09;;;;
2019/08/25 03:42:17;;;;;;;14.3;13;;;;;;;16.7;100;95472.09;;;;
2019/08/25 03:43:18;;;;;;;14.3;13;;;;;;;16.7;100;95472.09;;;;
2019/08/25 03:44:37;;;;;;;14.3;13;;;;;;;16.7;100;95472.09;;;;
2019/08/25 03:45:39;;;;;;;14.3;13;;;;;;;16.7;100;95472.09;;;;
2019/08/25 03:47:51;;;;;;;14.3;13;;;;;;;16.7;100;95472.09;;;;
2019/08/25 03:48:53;;;;;;;14;12.7;;;;;;;16.85;100;95474.98;;;;
2019/08/25 03:49:59;;;;;;;14;12.7;;;;;;;16.85;100;95474.98;;;;
2019/08/25 03:51:00;;;;;;;14;12.7;;;;;;;16.85;100;95474.98;;;;
2019/08/25 03:52:01;;;;;;;14;12.7;;;;;;;16.85;100;95474.98;;;;
2019/08/25 03:53:03;;;;;;;14;12.7;;;;;;;16.85;100;95474.98;;;;
2019/08/25 03:54:04;;;;;;;14;12.7;;;;;;;16.85;100;95474.98;;;;
2019/08/25 03:55:05;;;;;;;14;12.7;;;;;;;16.85;100;95474.98;;;;
2019/08/25 03:56:07;;;;;;;14;12.7;;;;;;;16.85;100;95474.98;;;;
2019/08/25 03:57:08;;;;;;;14;12.7;;;;;;;16.85;100;95474.98;;;;
2019/08/25 03:58:10;;;;;;;14;12.7;;;;;;;16.85;100;95474.98;;;;
2019/08/25 03:59:11;;;;;;;14;12.7;;;;;;;16.85;100;95474.98;;;;
2019/08/25 04:00:12;;;;;;;14.5;13.2;;;;;;;16.94;100;95469.16;;;;
2019/08/25 04:01:16;;;;;;;14.5;13.2;;;;;;;16.94;100;95469.16;;;;
2019/08/25 04:02:17;;;;;;;14.5;13.2;;;;;;;16.94;100;95469.16;;;;
2019/08/25 04:03:18;;;;;;;14.5;13.2;;;;;;;16.94;100;95469.16;;;;
2019/08/25 04:04:19;;;;;;;14.5;13.2;;;;;;;16.94;100;95469.16;;;;
2019/08/25 04:05:21;;;;;;;14.5;13.2;;;;;;;16.94;100;95469.16;;;;
2019/08/25 04:06:23;;;;;;;14.5;13.2;;;;;;;16.94;100;95469.16;;;;
2019/08/25 04:07:25;;;;;;;14.5;13.2;;;;;;;16.94;100;95469.16;;;;
2019/08/25 04:08:26;;;;;;;14.5;13.2;;;;;;;16.94;100;95469.16;;;;
2019/08/25 04:09:27;;;;;;;14.5;13.2;;;;;;;16.94;100;95469.16;;;;
2019/08/25 04:10:28;;;;;;;14.45;13.05;;;;;;;16.9;100;95479.08;;;;
2019/08/25 04:11:32;;;;;;;14.45;13.05;;;;;;;16.9;100;95479.08;;;;
2019/08/25 04:12:34;;;;;;;14.45;13.05;;;;;;;16.9;100;95479.08;;;;
2019/08/25 04:13:36;;;;;;;14.45;13.05;;;;;;;16.9;100;95479.08;;;;
2019/08/25 04:14:37;;;;;;;14.45;13.05;;;;;;;16.9;100;95479.08;;;;
2019/08/25 04:15:38;;;;;;;14.45;13.05;;;;;;;16.9;100;95479.08;;;;
2019/08/25 04:16:39;;;;;;;14.45;13.05;;;;;;;16.9;100;95479.08;;;;
2019/08/25 04:17:41;;;;;;;14.45;13.05;;;;;;;16.9;100;95479.08;;;;
2019/08/25 04:18:42;;;;;;;14.45;13.05;;;;;;;16.9;100;95479.08;;;;
2019/08/25 04:19:43;;;;;;;14.45;13.05;;;;;;;16.9;100;95479.08;;;;
2019/08/25 04:20:44;;;;;;;15.7;14.1;;;;;;;16.85;100;95482.64;;;;
2019/08/25 04:21:46;;;;;;;15.7;14.1;;;;;;;16.85;100;95482.64;;;;
2019/08/25 04:22:47;;;;;;;15.7;14.1;;;;;;;16.85;100;95482.64;;;;
2019/08/25 04:23:48;;;;;;;15.7;14.1;;;;;;;16.85;100;95482.64;;;;
2019/08/25 04:24:49;;;;;;;15.7;14.1;;;;;;;16.85;100;95482.64;;;;
2019/08/25 04:25:50;;;;;;;15.7;14.1;;;;;;;16.85;100;95482.64;;;;
2019/08/25 04:26:53;;;;;;;15.7;14.1;;;;;;;16.85;100;95482.64;;;;
2019/08/25 04:27:54;;;;;;;15.7;14.1;;;;;;;16.85;100;95482.64;;;;
2019/08/25 04:28:55;;;;;;;15.7;14.1;;;;;;;16.85;100;95482.64;;;;
2019/08/25 04:29:56;;;;;;;15.7;14.1;;;;;;;16.85;100;95482.64;;;;
2019/08/25 04:30:57;;;;;;;15.7;14.1;;;;;;;16.85;100;95482.64;;;;
2019/08/25 04:31:58;;;;;;;15.1;13.7;;;;;;;16.75;100;95479.07;;;;
2019/08/25 04:33:00;;;;;;;15.1;13.7;;;;;;;16.75;100;95479.07;;;;
2019/08/25 04:34:01;;;;;;;15.1;13.7;;;;;;;16.75;100;95479.07;;;;
2019/08/25 04:35:02;;;;;;;15.1;13.7;;;;;;;16.75;100;95479.07;;;;
2019/08/25 04:36:05;;;;;;;15.1;13.7;;;;;;;16.75;100;95479.07;;;;
2019/08/25 04:37:06;;;;;;;15.1;13.7;;;;;;;16.75;100;95479.07;;;;
2019/08/25 04:38:07;;;;;;;15.1;13.7;;;;;;;16.75;100;95479.07;;;;
2019/08/25 04:39:10;;;;;;;15.1;13.7;;;;;;;16.75;100;95479.07;;;;
2019/08/25 04:40:11;;;;;;;15.1;13.7;;;;;;;16.75;100;95479.07;;;;
2019/08/25 04:41:13;;;;;;;15.1;13.7;;;;;;;16.75;100;95479.07;;;;
2019/08/25 04:42:20;;;;;;;16.25;14.55;;;;;;;16.72;100;95483.14;;;;
2019/08/25 04:43:22;;;;;;;16.25;14.55;;;;;;;16.72;100;95483.14;;;;
2019/08/25 04:44:23;;;;;;;16.25;14.55;;;;;;;16.72;100;95483.14;;;;
2019/08/25 04:45:24;;;;;;;16.25;14.55;;;;;;;16.72;100;95483.14;;;;
2019/08/25 04:46:26;;;;;;;16.25;14.55;;;;;;;16.72;100;95483.14;;;;
2019/08/25 04:47:27;;;;;;;16.25;14.55;;;;;;;16.72;100;95483.14;;;;
2019/08/25 04:48:29;;;;;;;16.25;14.55;;;;;;;16.72;100;95483.14;;;;
2019/08/25 04:49:30;;;;;;;16.25;14.55;;;;;;;16.72;100;95483.14;;;;
2019/08/25 04:50:31;;;;;;;16.25;14.55;;;;;;;16.72;100;95483.14;;;;
2019/08/25 04:51:36;;;;;;;16.25;14.55;;;;;;;16.72;100;95483.14;;;;
2019/08/25 04:52:42;;;;;;;16.3;14.7;;;;;;;16.69;100;95483.12;;;;
2019/08/25 04:53:46;;;;;;;16.3;14.7;;;;;;;16.69;100;95483.12;;;;
2019/08/25 04:54:48;;;;;;;16.3;14.7;;;;;;;16.69;100;95483.12;;;;
2019/08/25 04:56:52;;;;;;;16.3;14.7;;;;;;;16.69;100;95483.12;;;;
2019/08/25 04:57:53;;;;;;;16.3;14.7;;;;;;;16.69;100;95483.12;;;;
2019/08/25 04:58:54;;;;;;;16.3;14.7;;;;;;;16.69;100;95483.12;;;;
2019/08/25 04:59:56;;;;;;;16.3;14.7;;;;;;;16.69;100;95483.12;;;;
2019/08/25 05:00:57;;;;;;;16.3;14.7;;;;;;;16.69;100;95483.12;;;;
2019/08/25 05:01:58;;;;;;;16.3;14.7;;;;;;;16.69;100;95483.12;;;;
2019/08/25 05:03:00;;;;;;;15.85;14.25;;;;;;;16.79;100;95498.29;;;;
2019/08/25 05:04:01;;;;;;;15.85;14.25;;;;;;;16.79;100;95498.29;;;;
2019/08/25 05:05:02;;;;;;;15.85;14.25;;;;;;;16.79;100;95498.29;;;;
2019/08/25 05:06:04;;;;;;;15.85;14.25;;;;;;;16.79;100;95498.29;;;;
2019/08/25 05:07:05;;;;;;;15.85;14.25;;;;;;;16.79;100;95498.29;;;;
2019/08/25 05:08:07;;;;;;;15.85;14.25;;;;;;;16.79;100;95498.29;;;;
2019/08/25 05:09:08;;;;;;;15.85;14.25;;;;;;;16.79;100;95498.29;;;;
2019/08/25 05:10:10;;;;;;;15.85;14.25;;;;;;;16.79;100;95498.29;;;;
2019/08/25 05:11:12;;;;;;;15.85;14.25;;;;;;;16.79;100;95498.29;;;;
2019/08/25 05:12:13;;;;;;;15.85;14.25;;;;;;;16.79;100;95498.29;;;;
2019/08/25 05:13:14;;;;;;;15.85;14.25;;;;;;;16.79;100;95498.29;;;;
2019/08/25 05:14:16;;;;;;;14.8;13.35;;;;;;;16.88;100;95508;;;;
2019/08/25 05:15:17;;;;;;;14.8;13.35;;;;;;;16.88;100;95508;;;;
2019/08/25 05:16:19;;;;;;;14.8;13.35;;;;;;;16.88;100;95508;;;;
2019/08/25 05:17:20;;;;;;;14.8;13.35;;;;;;;16.88;100;95508;;;;
2019/08/25 05:18:21;;;;;;;14.8;13.35;;;;;;;16.88;100;95508;;;;
2019/08/25 05:19:22;;;;;;;14.8;13.35;;;;;;;16.88;100;95508;;;;
2019/08/25 05:20:23;;;;;;;14.8;13.35;;;;;;;16.88;100;95508;;;;
2019/08/25 05:21:25;;;;;;;14.8;13.35;;;;;;;16.88;100;95508;;;;
2019/08/25 05:22:27;;;;;;;14.8;13.35;;;;;;;16.88;100;95508;;;;
2019/08/25 05:23:28;;;;;;;14.8;13.35;;;;;;;16.88;100;95508;;;;
2019/08/25 05:24:29;;;;;;;14.15;12.75;;;;;;;17.12;100;95510.92;;;;
2019/08/25 05:25:30;;;;;;;14.15;12.75;;;;;;;17.12;100;95510.92;;;;
2019/08/25 05:26:38;;;;;;;14.15;12.75;;;;;;;17.12;100;95510.92;;;;
2019/08/25 05:27:44;;;;;;;14.15;12.75;;;;;;;17.12;100;95510.92;;;;
2019/08/25 05:28:45;;;;;;;14.15;12.75;;;;;;;17.12;100;95510.92;;;;
2019/08/25 05:29:46;;;;;;;14.15;12.75;;;;;;;17.12;100;95510.92;;;;
2019/08/25 05:30:47;;;;;;;14.15;12.75;;;;;;;17.12;100;95510.92;;;;
2019/08/25 05:31:53;;;;;;;14.15;12.75;;;;;;;17.12;100;95510.92;;;;
2019/08/25 05:32:54;;;;;;;14.15;12.75;;;;;;;17.12;100;95510.92;;;;
2019/08/25 05:33:55;;;;;;;14.15;12.75;;;;;;;17.12;100;95510.92;;;;
2019/08/25 05:34:56;;;;;;;13.75;12.45;;;;;;;17.35;100;95505.47;;;;
2019/08/25 05:35:59;;;;;;;13.75;12.45;;;;;;;17.35;100;95505.47;;;;
2019/08/25 05:37:00;;;;;;;13.75;12.45;;;;;;;17.35;100;95505.47;;;;
2019/08/25 05:38:01;;;;;;;13.75;12.45;;;;;;;17.35;100;95505.47;;;;
2019/08/25 05:39:08;;;;;;;13.75;12.45;;;;;;;17.35;100;95505.47;;;;
2019/08/25 05:40:10;;;;;;;13.75;12.45;;;;;;;17.35;100;95505.47;;;;
2019/08/25 05:41:12;;;;;;;13.75;12.45;;;;;;;17.35;100;95505.47;;;;
2019/08/25 05:42:14;;;;;;;13.75;12.45;;;;;;;17.35;100;95505.47;;;;
2019/08/25 05:43:15;;;;;;;13.75;12.45;;;;;;;17.35;100;95505.47;;;;
2019/08/25 05:44:16;;;;;;;13.75;12.45;;;;;;;17.35;100;95505.47;;;;
2019/08/25 05:45:18;;;;;;;12.7;11.25;;;;;;;17.65;100;95507.81;;;;
2019/08/25 05:46:19;;;;;;;12.7;11.25;;;;;;;17.65;100;95507.81;;;;
2019/08/25 05:47:29;;;;;;;12.7;11.25;;;;;;;17.65;100;95507.81;;;;
2019/08/25 05:48:41;;;;;;;12.7;11.25;;;;;;;17.65;100;95507.81;;;;
2019/08/25 05:49:43;;;;;;;12.7;11.25;;;;;;;17.65;100;95507.81;;;;
2019/08/25 05:50:44;;;;;;;12.7;11.25;;;;;;;17.65;100;95507.81;;;;
2019/08/25 05:51:45;;;;;;;12.7;11.25;;;;;;;17.65;100;95507.81;;;;
2019/08/25 05:52:46;;;;;;;12.7;11.25;;;;;;;17.65;100;95507.81;;;;
2019/08/25 05:53:47;;;;;;;12.7;11.25;;;;;;;17.65;100;95507.81;;;;
2019/08/25 05:54:48;;;;;;;12.7;11.25;;;;;;;17.65;100;95507.81;;;;
2019/08/25 05:55:50;;;;;;;11.85;10.55;;;;;;;18.09;100;95524.83;;;;
2019/08/25 05:56:51;;;;;;;11.85;10.55;;;;;;;18.09;100;95524.83;;;;
2019/08/25 05:57:52;;;;;;;11.85;10.55;;;;;;;18.09;100;95524.83;;;;
2019/08/25 05:58:54;;;;;;;11.85;10.55;;;;;;;18.09;100;95524.83;;;;
2019/08/25 05:59:55;;;;;;;11.85;10.55;;;;;;;18.09;100;95524.83;;;;
2019/08/25 06:00:56;;;;;;;11.85;10.55;;;;;;;18.09;100;95524.83;;;;
2019/08/25 06:01:57;;;;;;;11.85;10.55;;;;;;;18.09;100;95524.83;;;;
2019/08/25 06:02:59;;;;;;;11.85;10.55;;;;;;;18.09;100;95524.83;;;;
2019/08/25 06:04:00;;;;;;;11.85;10.55;;;;;;;18.09;100;95524.83;;;;
2019/08/25 06:05:01;;;;;;;11.85;10.55;;;;;;;18.09;100;95524.83;;;;
2019/08/25 06:06:03;;;;;;;11.85;10.55;;;;;;;18.09;100;95524.83;;;;
2019/08/25 06:07:05;;;;;;;11.2;10.1;;;;;;;18.99;100;95506.85;;;;
2019/08/25 06:08:07;;;;;;;11.2;10.1;;;;;;;18.99;100;95506.85;;;;
2019/08/25 06:09:08;;;;;;;11.2;10.1;;;;;;;18.99;100;95506.85;;;;
2019/08/25 06:10:09;;;;;;;11.2;10.1;;;;;;;18.99;100;95506.85;;;;
2019/08/25 06:11:11;;;;;;;11.2;10.1;;;;;;;18.99;100;95506.85;;;;
2019/08/25 06:12:13;;;;;;;11.2;10.1;;;;;;;18.99;100;95506.85;;;;
2019/08/25 06:13:14;;;;;;;11.2;10.1;;;;;;;18.99;100;95506.85;;;;
2019/08/25 06:14:15;;;;;;;11.2;10.1;;;;;;;18.99;100;95506.85;;;;
2019/08/25 06:15:16;;;;;;;11.2;10.1;;;;;;;18.99;100;95506.85;;;;
2019/08/25 06:16:18;;;;;;;11.2;10.1;;;;;;;18.99;100;95506.85;;;;
2019/08/25 06:17:19;;;;;;;11.05;10.1;;;;;;;19.67;100;95527.21;;;;
2019/08/25 06:18:21;;;;;;;11.05;10.1;;;;;;;19.67;100;95527.21;;;;